Time;durP1;ratioP1;P1;durP2;ratioP2;P2;SDS_P1;SDS_P2;PMS_P1;PMS_P2;Temp;Humidity;BMP_temperature;BMP_pressure;BME280_temperature;BME280_humidity;BME280_pressure;Samples;Min_cycle;Max_cycle;Signal;HPM_P1;HPM_P2
2022/04/28 00:00:09;;;;;;;;;75.80;64.80;;;;;;;;5012390;28;8729;-69
2022/04/28 00:02:36;;;;;;;;;76.00;67.40;;;;;;;;5012277;28;8714;-68
2022/04/28 00:05:03;;;;;;;;;74.80;60.80;;;;;;;;5012501;28;8732;-69
2022/04/28 00:07:30;;;;;;;;;63.20;52.60;;;;;;;;5002998;28;10373;-68
2022/04/28 00:09:57;;;;;;;;;72.60;59.40;;;;;;;;5017151;28;8815;-68
2022/04/28 00:12:24;;;;;;;;;69.60;54.40;;;;;;;;5016610;28;8799;-68
2022/04/28 00:14:50;;;;;;;;;76.40;63.00;;;;;;;;5016944;28;8798;-69
2022/04/28 00:17:17;;;;;;;;;75.60;63.40;;;;;;;;5016891;28;8790;-68
2022/04/28 00:19:44;;;;;;;;;77.40;66.40;;;;;;;;5016563;28;8858;-68
2022/04/28 00:22:11;;;;;;;;;71.20;58.00;;;;;;;;5018417;28;8769;-69
2022/04/28 00:24:38;;;;;;;;;73.00;60.60;;;;;;;;5022815;28;8835;-68
2022/04/28 00:27:05;;;;;;;;;71.80;57.20;;;;;;;;5023212;28;9002;-69
2022/04/28 00:29:32;;;;;;;;;67.80;56.00;;;;;;;;5005563;28;8808;-68
2022/04/28 00:31:58;;;;;;;;;73.40;58.60;;;;;;;;5022784;28;8928;-68
2022/04/28 00:34:25;;;;;;;;;68.80;53.40;;;;;;;;5023158;28;8814;-67
2022/04/28 00:36:52;;;;;;;;;70.00;53.60;;;;;;;;5023371;28;8803;-69
2022/04/28 00:39:21;;;;;;;;;75.60;60.40;;;;;;;;5042140;28;8804;-67
2022/04/28 00:41:48;;;;;;;;;65.60;50.60;;;;;;;;5042301;28;8789;-69
2022/04/28 00:44:16;;;;;;;;;73.80;63.00;;;;;;;;5041971;28;8758;-68
2022/04/28 00:46:43;;;;;;;;;76.60;61.60;;;;;;;;5024708;28;8742;-72
2022/04/28 00:51:55;;;;;;;;;61.40;47.20;;;;;;;;5041487;28;8893;-72
2022/04/28 00:54:22;;;;;;;;;71.40;56.60;;;;;;;;5040868;28;8793;-64
2022/04/28 00:56:49;;;;;;;;;68.20;53.00;;;;;;;;5015778;28;8759;-63
2022/04/28 00:59:16;;;;;;;;;69.00;53.40;;;;;;;;5022108;28;8811;-63
2022/04/28 01:01:42;;;;;;;;;70.80;56.20;;;;;;;;5022113;28;8759;-64
2022/04/28 01:04:09;;;;;;;;;68.40;54.80;;;;;;;;5023356;28;8781;-63
2022/04/28 01:06:36;;;;;;;;;73.20;55.00;;;;;;;;5022406;28;8742;-63
2022/04/28 01:09:02;;;;;;;;;69.20;52.40;;;;;;;;5023020;28;8798;-63
2022/04/28 01:11:29;;;;;;;;;63.80;52.20;;;;;;;;5022575;28;8938;-62
2022/04/28 01:13:56;;;;;;;;;62.60;48.20;;;;;;;;5021110;28;8844;-63
2022/04/28 01:16:23;;;;;;;;;66.20;50.80;;;;;;;;5022891;28;8775;-64
2022/04/28 01:18:49;;;;;;;;;67.60;51.40;;;;;;;;5041383;28;9383;-63
2022/04/28 01:21:16;;;;;;;;;64.00;50.80;;;;;;;;5041099;28;8780;-63
2022/04/28 01:23:43;;;;;;;;;64.00;48.40;;;;;;;;5042052;28;8848;-64
2022/04/28 01:26:10;;;;;;;;;67.20;51.00;;;;;;;;5041896;28;8762;-64
2022/04/28 01:28:36;;;;;;;;;69.60;55.20;;;;;;;;5041749;28;8773;-64
2022/04/28 01:31:06;;;;;;;;;66.00;51.00;;;;;;;;5041724;28;8761;-63
2022/04/28 01:33:33;;;;;;;;;61.20;47.40;;;;;;;;5021313;28;8753;-63
2022/04/28 01:36:00;;;;;;;;;61.80;47.60;;;;;;;;5038180;28;8753;-63
2022/04/28 01:38:26;;;;;;;;;70.80;52.60;;;;;;;;5038279;28;8846;-63
2022/04/28 01:40:53;;;;;;;;;65.60;50.20;;;;;;;;5021235;28;8780;-63
2022/04/28 01:43:20;;;;;;;;;70.60;51.60;;;;;;;;5036865;28;8765;-63
2022/04/28 01:45:47;;;;;;;;;68.80;51.40;;;;;;;;5036792;28;8768;-62
2022/04/28 01:48:24;;;;;;;;;69.80;55.80;;;;;;;;5037126;28;8757;-64
2022/04/28 01:56:21;;;;;;;;;68.20;50.80;;;;;;;;5036599;28;8785;-63
2022/04/28 01:58:48;;;;;;;;;66.60;53.60;;;;;;;;5038684;28;8893;-64
2022/04/28 02:01:14;;;;;;;;;69.40;54.20;;;;;;;;5038941;28;8750;-65
2022/04/28 02:03:41;;;;;;;;;67.00;51.00;;;;;;;;5037761;28;8940;-65
2022/04/28 02:06:08;;;;;;;;;73.20;53.60;;;;;;;;5020712;28;8746;-63
2022/04/28 02:08:34;;;;;;;;;70.20;54.80;;;;;;;;5037618;28;8773;-65
2022/04/28 02:11:01;;;;;;;;;69.60;57.00;;;;;;;;5038292;28;8781;-64
2022/04/28 02:13:28;;;;;;;;;69.20;51.60;;;;;;;;5037803;28;8801;-63
2022/04/28 02:15:55;;;;;;;;;68.40;52.40;;;;;;;;5039074;28;8733;-64
2022/04/28 02:18:22;;;;;;;;;69.00;53.40;;;;;;;;5037947;28;8746;-62
2022/04/28 02:20:49;;;;;;;;;66.00;52.60;;;;;;;;5036907;28;8750;-64
2022/04/28 02:23:15;;;;;;;;;68.00;53.20;;;;;;;;5037167;28;9488;-63
2022/04/28 02:25:42;;;;;;;;;63.00;49.60;;;;;;;;5016805;28;8862;-63
2022/04/28 02:28:09;;;;;;;;;66.40;52.40;;;;;;;;5018335;28;8755;-63
2022/04/28 02:30:35;;;;;;;;;66.80;50.80;;;;;;;;5016591;28;8779;-64
2022/04/28 02:33:11;;;;;;;;;67.60;52.60;;;;;;;;5016005;28;8821;-63
2022/04/28 02:35:38;;;;;;;;;70.80;55.80;;;;;;;;5016968;28;8759;-62
2022/04/28 02:38:05;;;;;;;;;65.60;50.80;;;;;;;;5006347;28;8905;-63
2022/04/28 02:40:32;;;;;;;;;71.60;54.80;;;;;;;;4997557;28;8753;-64
2022/04/28 02:42:59;;;;;;;;;69.20;52.20;;;;;;;;5012892;28;8896;-65
2022/04/28 02:45:26;;;;;;;;;67.00;52.40;;;;;;;;5009896;28;8746;-65
2022/04/28 02:47:53;;;;;;;;;66.40;50.80;;;;;;;;4996686;28;8772;-64
2022/04/28 02:50:22;;;;;;;;;74.00;55.80;;;;;;;;4995380;28;9478;-62
2022/04/28 02:52:50;;;;;;;;;69.40;52.80;;;;;;;;5005403;28;8758;-64
2022/04/28 02:55:17;;;;;;;;;74.80;58.00;;;;;;;;5016986;28;8759;-64
2022/04/28 02:57:43;;;;;;;;;63.40;51.00;;;;;;;;5017475;28;8786;-63
2022/04/28 03:00:10;;;;;;;;;68.20;51.00;;;;;;;;5017609;28;8790;-63
2022/04/28 03:02:37;;;;;;;;;68.00;52.00;;;;;;;;5016086;28;8825;-63
2022/04/28 03:05:04;;;;;;;;;66.40;52.40;;;;;;;;5018037;28;8852;-64
2022/04/28 03:13:02;;;;;;;;;70.20;56.00;;;;;;;;4996912;28;8757;-63
2022/04/28 03:15:29;;;;;;;;;66.40;52.20;;;;;;;;5012644;28;8781;-67
2022/04/28 03:17:56;;;;;;;;;70.80;57.40;;;;;;;;4997691;28;8757;-65
2022/04/28 03:20:22;;;;;;;;;69.00;53.00;;;;;;;;4997656;28;8773;-65
2022/04/28 03:22:49;;;;;;;;;69.20;53.00;;;;;;;;5006043;28;9038;-66
2022/04/28 03:25:16;;;;;;;;;64.20;49.60;;;;;;;;5033233;28;8882;-65
2022/04/28 03:27:43;;;;;;;;;66.00;52.80;;;;;;;;5036689;28;8766;-67
2022/04/28 03:30:10;;;;;;;;;68.40;53.60;;;;;;;;5027345;28;8821;-67
2022/04/28 03:32:36;;;;;;;;;63.00;50.40;;;;;;;;5019001;28;9474;-66
2022/04/28 03:35:03;;;;;;;;;67.80;52.00;;;;;;;;5018980;28;8773;-66
2022/04/28 03:37:30;;;;;;;;;67.60;53.20;;;;;;;;5036064;28;8758;-66
2022/04/28 03:39:57;;;;;;;;;67.80;55.00;;;;;;;;5037409;28;8773;-67
2022/04/28 03:42:24;;;;;;;;;66.20;52.00;;;;;;;;5035098;28;8797;-69
2022/04/28 03:44:50;;;;;;;;;68.80;52.00;;;;;;;;5036541;28;8975;-67
2022/04/28 03:47:17;;;;;;;;;69.40;53.60;;;;;;;;5036471;28;8789;-64
2022/04/28 03:49:44;;;;;;;;;66.80;50.60;;;;;;;;5018940;28;8801;-67
2022/04/28 03:52:11;;;;;;;;;69.80;52.20;;;;;;;;5035428;28;8773;-65
2022/04/28 03:54:37;;;;;;;;;70.60;53.60;;;;;;;;5035974;28;8769;-71
2022/04/28 03:57:04;;;;;;;;;62.00;49.20;;;;;;;;5036695;28;8804;-71
2022/04/28 03:59:31;;;;;;;;;70.60;52.80;;;;;;;;5018773;28;8780;-67
2022/04/28 04:01:58;;;;;;;;;65.80;50.40;;;;;;;;5035343;28;8797;-71
2022/04/28 04:04:25;;;;;;;;;61.80;46.80;;;;;;;;5035159;28;8884;-68
2022/04/28 04:06:51;;;;;;;;;69.00;53.80;;;;;;;;5035853;28;8781;-65
2022/04/28 04:09:18;;;;;;;;;63.40;50.00;;;;;;;;5035587;28;8789;-68
2022/04/28 04:11:45;;;;;;;;;62.40;50.00;;;;;;;;5035928;28;8862;-69
2022/04/28 04:14:12;;;;;;;;;63.40;49.20;;;;;;;;5035916;28;9492;-68
2022/04/28 04:16:38;;;;;;;;;64.80;51.60;;;;;;;;5032389;28;8760;-69
2022/04/28 04:19:05;;;;;;;;;63.80;49.80;;;;;;;;5031681;28;8813;-72
2022/04/28 04:21:32;;;;;;;;;59.60;47.20;;;;;;;;5016100;28;8751;-65
2022/04/28 04:23:59;;;;;;;;;66.00;50.20;;;;;;;;4996631;28;8769;-64
2022/04/28 04:26:26;;;;;;;;;66.00;51.80;;;;;;;;4995733;28;8800;-64
2022/04/28 04:28:52;;;;;;;;;65.00;51.20;;;;;;;;4979232;28;8950;-63
2022/04/28 04:34:05;;;;;;;;;65.20;51.00;;;;;;;;5002314;28;8739;-64
2022/04/28 04:36:31;;;;;;;;;62.60;48.40;;;;;;;;5014691;28;8832;-63
2022/04/28 04:38:58;;;;;;;;;60.00;45.60;;;;;;;;5017291;28;8788;-63
2022/04/28 04:41:25;;;;;;;;;63.80;51.60;;;;;;;;5032943;28;8766;-64
2022/04/28 04:43:52;;;;;;;;;68.00;52.20;;;;;;;;5018140;28;8866;-65
2022/04/28 04:46:18;;;;;;;;;66.20;52.00;;;;;;;;5019178;28;8797;-62
2022/04/28 04:48:48;;;;;;;;;67.60;53.60;;;;;;;;5018232;28;8743;-63
2022/04/28 04:51:15;;;;;;;;;59.60;46.00;;;;;;;;5014821;28;8786;-63
2022/04/28 04:53:42;;;;;;;;;65.40;50.00;;;;;;;;4999977;28;8765;-63
2022/04/28 04:56:09;;;;;;;;;59.80;46.60;;;;;;;;4996080;28;8785;-64
2022/04/28 04:58:35;;;;;;;;;65.20;49.60;;;;;;;;5010839;28;8831;-63
2022/04/28 05:01:04;;;;;;;;;66.40;51.20;;;;;;;;5011488;28;8868;-64
2022/04/28 05:03:30;;;;;;;;;60.40;49.20;;;;;;;;4996235;28;9398;-62
2022/04/28 05:05:57;;;;;;;;;56.00;44.60;;;;;;;;5012325;28;8773;-63
2022/04/28 05:08:24;;;;;;;;;58.40;45.80;;;;;;;;5010938;28;8762;-63
2022/04/28 05:10:51;;;;;;;;;59.00;44.40;;;;;;;;5018931;28;9410;-64
2022/04/28 05:13:18;;;;;;;;;65.80;51.40;;;;;;;;5034804;28;8791;-64
2022/04/28 05:15:47;;;;;;;;;58.60;46.00;;;;;;;;5034294;28;8789;-64
2022/04/28 05:18:14;;;;;;;;;64.80;49.00;;;;;;;;5018285;28;8730;-63
2022/04/28 05:20:40;;;;;;;;;61.40;47.40;;;;;;;;5017795;28;8747;-63
2022/04/28 05:23:07;;;;;;;;;46.50;38.00;;;;;;;;5023401;28;8753;-64
2022/04/28 05:25:34;;;;;;;;;51.25;40.50;;;;;;;;5014419;28;8742;-64
2022/04/28 05:28:00;;;;;;;;;50.60;41.00;;;;;;;;4999115;28;8753;-63
2022/04/28 05:30:27;;;;;;;;;55.00;43.00;;;;;;;;4992244;28;8837;-64
2022/04/28 05:32:54;;;;;;;;;54.00;44.60;;;;;;;;5011660;28;8790;-63
2022/04/28 05:35:21;;;;;;;;;56.75;43.00;;;;;;;;4998564;28;9524;-64
2022/04/28 05:37:47;;;;;;;;;61.40;48.20;;;;;;;;5007774;28;8871;-64
2022/04/28 05:40:15;;;;;;;;;58.00;45.00;;;;;;;;5020060;28;8845;-62
2022/04/28 05:45:42;;;;;;;;;50.80;43.20;;;;;;;;5018091;28;8770;-69
2022/04/28 05:48:13;;;;;;;;;54.20;43.80;;;;;;;;5017790;28;8755;-69
2022/04/28 05:50:40;;;;;;;;;53.40;43.40;;;;;;;;5018631;28;8769;-68
2022/04/28 05:53:07;;;;;;;;;54.20;42.20;;;;;;;;5008596;28;8745;-69
2022/04/28 05:55:34;;;;;;;;;49.60;38.80;;;;;;;;4998184;28;9398;-68
2022/04/28 05:58:00;;;;;;;;;56.40;43.00;;;;;;;;4999412;28;8770;-67
2022/04/28 06:00:27;;;;;;;;;49.80;39.00;;;;;;;;5013972;28;8797;-68
2022/04/28 06:02:54;;;;;;;;;50.00;38.80;;;;;;;;4998975;28;8769;-67
2022/04/28 06:05:21;;;;;;;;;50.75;41.50;;;;;;;;5013857;28;8793;-67
2022/04/28 06:07:48;;;;;;;;;50.00;41.75;;;;;;;;5006311;28;8787;-65
2022/04/28 06:10:15;;;;;;;;;54.00;42.00;;;;;;;;5033714;28;8845;-65
2022/04/28 06:12:42;;;;;;;;;47.50;39.25;;;;;;;;5034096;28;8925;-65
2022/04/28 06:15:09;;;;;;;;;53.20;43.40;;;;;;;;5031007;28;8797;-65
2022/04/28 06:17:36;;;;;;;;;44.50;35.25;;;;;;;;5037521;28;8777;-64
2022/04/28 06:20:03;;;;;;;;;51.50;39.50;;;;;;;;5018551;28;8986;-66
2022/04/28 06:22:29;;;;;;;;;45.25;38.50;;;;;;;;5037202;28;8786;-65
2022/04/28 06:24:58;;;;;;;;;42.50;34.75;;;;;;;;5017021;28;8802;-65
2022/04/28 06:27:28;;;;;;;;;37.50;32.00;;;;;;;;5017964;28;8774;-69
2022/04/28 06:29:54;;;;;;;;;49.50;40.00;;;;;;;;5015727;28;8799;-69
2022/04/28 06:32:21;;;;;;;;;47.00;40.00;;;;;;;;5015488;28;8786;-68
2022/04/28 06:34:48;;;;;;;;;46.25;39.00;;;;;;;;5017569;28;9403;-67
2022/04/28 06:37:15;;;;;;;;;53.20;42.20;;;;;;;;5017673;28;8806;-68
2022/04/28 06:39:42;;;;;;;;;48.60;39.20;;;;;;;;5016053;28;8755;-67
2022/04/28 06:42:08;;;;;;;;;48.50;38.75;;;;;;;;5032413;28;8791;-65
2022/04/28 06:44:36;;;;;;;;;45.00;38.00;;;;;;;;5017016;28;8758;-65
2022/04/28 06:47:05;;;;;;;;;37.75;32.50;;;;;;;;5016803;28;8759;-64
2022/04/28 06:49:33;;;;;;;;;41.75;36.00;;;;;;;;5017092;28;8822;-64
2022/04/28 06:51:59;;;;;;;;;47.00;38.00;;;;;;;;5033457;28;9368;-64
2022/04/28 06:54:26;;;;;;;;;46.75;38.00;;;;;;;;5017282;28;8798;-63
2022/04/28 06:56:53;;;;;;;;;46.00;38.25;;;;;;;;5017600;28;8840;-63
2022/04/28 06:59:20;;;;;;;;;52.00;41.25;;;;;;;;5016011;28;8806;-62
2022/04/28 07:01:47;;;;;;;;;52.75;39.75;;;;;;;;5016281;28;9420;-65
2022/04/28 07:04:14;;;;;;;;;45.75;38.00;;;;;;;;5014661;28;8770;-66
2022/04/28 07:06:41;;;;;;;;;45.00;35.25;;;;;;;;5016540;28;8786;-67
2022/04/28 07:09:08;;;;;;;;;46.00;36.75;;;;;;;;4998405;28;10002;-71
2022/04/28 07:11:35;;;;;;;;;46.50;37.50;;;;;;;;5017360;28;8899;-66
2022/04/28 07:14:02;;;;;;;;;36.25;31.00;;;;;;;;5016242;28;8786;-66
2022/04/28 07:16:28;;;;;;;;;45.00;37.25;;;;;;;;5017088;28;8816;-64
2022/04/28 07:18:55;;;;;;;;;44.00;36.00;;;;;;;;5017651;28;8735;-66
2022/04/28 07:21:22;;;;;;;;;45.40;37.20;;;;;;;;5017018;28;8747;-65
2022/04/28 07:23:49;;;;;;;;;46.25;37.25;;;;;;;;5018090;28;8785;-64
2022/04/28 07:26:15;;;;;;;;;45.00;36.50;;;;;;;;5037058;28;8815;-65
2022/04/28 07:28:42;;;;;;;;;46.00;38.00;;;;;;;;5036935;28;8746;-68
2022/04/28 07:31:09;;;;;;;;;45.75;38.50;;;;;;;;5036621;28;8781;-68
2022/04/28 07:33:35;;;;;;;;;45.50;38.00;;;;;;;;5018946;28;8760;-68
2022/04/28 07:36:02;;;;;;;;;43.00;35.75;;;;;;;;5036418;28;8761;-68
2022/04/28 07:38:29;;;;;;;;;47.25;38.25;;;;;;;;5002409;28;8742;-68
2022/04/28 07:40:56;;;;;;;;;48.80;39.40;;;;;;;;5036369;28;8758;-66
2022/04/28 07:43:25;;;;;;;;;41.00;34.25;;;;;;;;5037163;28;8758;-65
2022/04/28 07:45:52;;;;;;;;;49.00;39.80;;;;;;;;5037041;28;8729;-66
2022/04/28 07:48:18;;;;;;;;;49.80;39.00;;;;;;;;5036267;28;8852;-65
2022/04/28 07:50:46;;;;;;;;;48.40;38.20;;;;;;;;5036540;28;8742;-68
2022/04/28 07:53:13;;;;;;;;;48.50;37.00;;;;;;;;5018760;28;8777;-70
2022/04/28 07:55:40;;;;;;;;;45.50;37.50;;;;;;;;5036518;28;8778;-67
2022/04/28 07:58:07;;;;;;;;;47.75;37.25;;;;;;;;5037063;28;8753;-66
2022/04/28 08:00:34;;;;;;;;;44.25;35.75;;;;;;;;5035940;28;8773;-66
2022/04/28 08:03:00;;;;;;;;;47.75;39.75;;;;;;;;5036259;28;9438;-68
2022/04/28 08:05:27;;;;;;;;;49.80;40.00;;;;;;;;5036115;28;8854;-68
2022/04/28 08:07:54;;;;;;;;;46.00;38.00;;;;;;;;5036745;28;8864;-67
2022/04/28 08:10:21;;;;;;;;;43.50;36.50;;;;;;;;5018801;28;8847;-67
2022/04/28 08:12:47;;;;;;;;;42.40;35.00;;;;;;;;5036039;28;8788;-69
2022/04/28 08:15:14;;;;;;;;;47.00;38.00;;;;;;;;5036498;28;9024;-69
2022/04/28 08:17:41;;;;;;;;;45.00;37.60;;;;;;;;5035801;28;8784;-70
2022/04/28 08:20:08;;;;;;;;;35.50;30.50;;;;;;;;5036254;28;8807;-63
2022/04/28 08:22:35;;;;;;;;;41.80;34.00;;;;;;;;5035910;28;8778;-63
2022/04/28 08:25:02;;;;;;;;;45.40;37.80;;;;;;;;5036745;28;8789;-65
2022/04/28 08:27:29;;;;;;;;;41.00;34.00;;;;;;;;5017948;28;8758;-65
2022/04/28 08:29:55;;;;;;;;;48.00;40.40;;;;;;;;5036996;28;9478;-66
2022/04/28 08:32:22;;;;;;;;;47.20;40.00;;;;;;;;5036311;28;8834;-65
2022/04/28 08:34:49;;;;;;;;;48.20;39.60;;;;;;;;5035841;28;8943;-66
2022/04/28 08:37:16;;;;;;;;;51.80;41.80;;;;;;;;5036291;28;8915;-67
2022/04/28 08:39:43;;;;;;;;;49.20;39.20;;;;;;;;5036040;28;9461;-66
2022/04/28 08:42:12;;;;;;;;;43.60;37.00;;;;;;;;5036488;28;8840;-66
2022/04/28 08:44:39;;;;;;;;;45.00;37.40;;;;;;;;5038895;28;8797;-66
2022/04/28 08:47:06;;;;;;;;;51.00;42.00;;;;;;;;5040389;28;8980;-66
2022/04/28 08:49:33;;;;;;;;;54.60;42.20;;;;;;;;5039686;28;8798;-66
2022/04/28 08:52:00;;;;;;;;;51.40;40.80;;;;;;;;5040699;28;8895;-66
2022/04/28 08:54:28;;;;;;;;;45.25;38.00;;;;;;;;5040037;28;8730;-66
2022/04/28 08:56:55;;;;;;;;;48.25;38.25;;;;;;;;5040333;28;9437;-66
2022/04/28 08:59:22;;;;;;;;;45.40;37.60;;;;;;;;5039816;28;8919;-65
2022/04/28 09:01:50;;;;;;;;;50.00;41.60;;;;;;;;5031389;28;8777;-66
2022/04/28 09:04:17;;;;;;;;;51.60;41.80;;;;;;;;5040621;28;8781;-65
2022/04/28 09:06:44;;;;;;;;;43.40;34.20;;;;;;;;5040189;28;8753;-66
2022/04/28 09:09:12;;;;;;;;;50.50;39.50;;;;;;;;5022000;28;8793;-66
2022/04/28 09:11:40;;;;;;;;;49.60;39.80;;;;;;;;5038386;28;8769;-66
2022/04/28 09:14:18;;;;;;;;;49.60;41.80;;;;;;;;5039832;28;8805;-66
2022/04/28 09:16:49;;;;;;;;;48.80;40.80;;;;;;;;5023453;28;8935;-66
2022/04/28 09:19:25;;;;;;;;;51.60;43.40;;;;;;;;5022687;28;8754;-67
2022/04/28 09:21:53;;;;;;;;;50.20;39.40;;;;;;;;5039863;28;8746;-67
2022/04/28 09:24:20;;;;;;;;;51.40;41.20;;;;;;;;5021444;28;8793;-65
2022/04/28 09:26:47;;;;;;;;;49.00;41.40;;;;;;;;5039703;28;8773;-66
2022/04/28 09:29:15;;;;;;;;;52.00;41.80;;;;;;;;5039694;28;8801;-67
2022/04/28 09:31:43;;;;;;;;;53.20;43.60;;;;;;;;5039406;28;9441;-67
2022/04/28 09:34:11;;;;;;;;;49.40;41.20;;;;;;;;5022189;28;8758;-66
2022/04/28 09:36:38;;;;;;;;;54.80;44.20;;;;;;;;5038881;28;8835;-66
2022/04/28 09:39:05;;;;;;;;;55.20;45.00;;;;;;;;5039039;28;8837;-66
2022/04/28 09:44:18;;;;;;;;;53.60;44.00;;;;;;;;5024115;28;8874;-64
2022/04/28 09:46:45;;;;;;;;;60.80;47.00;;;;;;;;5039303;28;8903;-66
2022/04/28 09:49:12;;;;;;;;;55.40;44.00;;;;;;;;5038463;28;8813;-66
2022/04/28 09:51:41;;;;;;;;;57.60;46.40;;;;;;;;5038826;28;10132;-66
2022/04/28 09:54:09;;;;;;;;;56.60;46.00;;;;;;;;5021105;28;8789;-66
2022/04/28 09:56:36;;;;;;;;;56.60;45.20;;;;;;;;5038419;28;8785;-66
2022/04/28 09:59:05;;;;;;;;;58.80;46.40;;;;;;;;5021513;28;8761;-66
2022/04/28 10:01:32;;;;;;;;;59.00;45.40;;;;;;;;5038501;28;8819;-66
2022/04/28 10:03:58;;;;;;;;;60.40;48.20;;;;;;;;5039582;28;8872;-66
2022/04/28 10:06:25;;;;;;;;;62.20;49.00;;;;;;;;5038635;28;8765;-66
2022/04/28 10:08:52;;;;;;;;;62.20;49.80;;;;;;;;5038591;28;8746;-66
2022/04/28 10:11:21;;;;;;;;;63.60;50.00;;;;;;;;5038431;28;8741;-65
2022/04/28 10:13:48;;;;;;;;;63.40;49.00;;;;;;;;5038598;28;8868;-66
2022/04/28 10:16:15;;;;;;;;;63.20;48.00;;;;;;;;5021768;28;8745;-66
2022/04/28 10:18:47;;;;;;;;;59.00;46.40;;;;;;;;5037040;28;8761;-66
2022/04/28 10:21:16;;;;;;;;;51.20;42.80;;;;;;;;5038402;28;8761;-66
2022/04/28 10:32:42;;;;;;;;;56.60;45.20;;;;;;;;5023211;28;8777;-65
2022/04/28 10:35:09;;;;;;;;;62.60;48.20;;;;;;;;5038147;28;9444;-66
2022/04/28 10:37:36;;;;;;;;;56.80;45.60;;;;;;;;5037635;28;8784;-66
2022/04/28 10:40:03;;;;;;;;;56.40;44.60;;;;;;;;5037388;28;8761;-66
2022/04/28 10:42:30;;;;;;;;;59.20;46.40;;;;;;;;5037936;28;8772;-66
2022/04/28 10:44:58;;;;;;;;;58.40;47.20;;;;;;;;5038290;28;8830;-67
2022/04/28 10:47:38;;;;;;;;;61.40;48.80;;;;;;;;5037868;28;8781;-66
2022/04/28 10:50:21;;;;;;;;;57.40;46.40;;;;;;;;5036705;28;8860;-67
2022/04/28 10:52:57;;;;;;;;;56.40;46.00;;;;;;;;5037890;28;8742;-66
2022/04/28 10:55:24;;;;;;;;;56.40;43.20;;;;;;;;5038210;28;8773;-66
2022/04/28 10:57:52;;;;;;;;;59.80;48.00;;;;;;;;5020097;28;8745;-67
2022/04/28 11:00:34;;;;;;;;;57.00;45.80;;;;;;;;5014672;28;8770;-65
2022/04/28 11:03:02;;;;;;;;;55.40;44.20;;;;;;;;5018154;28;8778;-66
2022/04/28 11:05:33;;;;;;;;;64.60;50.80;;;;;;;;5017255;28;8787;-66
2022/04/28 11:08:00;;;;;;;;;69.80;56.40;;;;;;;;5007730;28;8771;-67
2022/04/28 11:10:27;;;;;;;;;60.80;48.80;;;;;;;;5036283;28;8805;-65
2022/04/28 11:12:55;;;;;;;;;62.20;48.80;;;;;;;;5018169;28;8813;-66
2022/04/28 11:15:23;;;;;;;;;60.80;47.60;;;;;;;;5017499;28;8880;-66
2022/04/28 11:17:50;;;;;;;;;60.60;47.20;;;;;;;;5018065;28;8781;-66
2022/04/28 11:20:21;;;;;;;;;61.20;49.00;;;;;;;;5033333;28;8783;-66
2022/04/28 11:22:50;;;;;;;;;60.80;46.80;;;;;;;;5025096;28;8852;-66
2022/04/28 11:25:18;;;;;;;;;60.00;47.00;;;;;;;;4998171;28;8769;-65
2022/04/28 11:27:46;;;;;;;;;60.40;49.00;;;;;;;;4997044;28;8746;-66
2022/04/28 11:30:15;;;;;;;;;60.80;47.80;;;;;;;;4996975;28;8797;-66
2022/04/28 11:32:51;;;;;;;;;59.60;46.20;;;;;;;;4983338;28;8800;-66
2022/04/28 11:35:18;;;;;;;;;59.00;47.20;;;;;;;;4996761;28;8757;-64
2022/04/28 11:37:45;;;;;;;;;54.40;44.00;;;;;;;;5005184;28;9511;-66
2022/04/28 11:40:16;;;;;;;;;56.00;45.80;;;;;;;;5018223;28;8731;-66
2022/04/28 11:42:44;;;;;;;;;61.00;47.60;;;;;;;;5017454;28;8777;-67
2022/04/28 11:45:11;;;;;;;;;57.40;44.20;;;;;;;;5017660;28;8837;-67
2022/04/28 11:47:45;;;;;;;;;62.60;49.20;;;;;;;;5016769;28;8806;-67
2022/04/28 11:50:26;;;;;;;;;60.00;47.20;;;;;;;;5015775;28;8758;-67
2022/04/28 11:53:05;;;;;;;;;54.00;45.00;;;;;;;;5008720;28;8780;-66
2022/04/28 11:55:35;;;;;;;;;60.00;46.80;;;;;;;;4997048;28;8750;-66
2022/04/28 11:58:02;;;;;;;;;53.00;45.00;;;;;;;;4998065;28;8969;-66
2022/04/28 12:00:29;;;;;;;;;63.60;50.60;;;;;;;;4997356;28;8781;-66
2022/04/28 12:02:56;;;;;;;;;61.20;46.60;;;;;;;;4972067;28;8769;-66
2022/04/28 12:05:23;;;;;;;;;54.80;44.80;;;;;;;;4997390;28;8865;-66
2022/04/28 12:07:53;;;;;;;;;56.60;45.20;;;;;;;;5005365;28;8750;-67
2022/04/28 12:15:56;;;;;;;;;54.75;44.50;;;;;;;;5017823;28;8743;-66
2022/04/28 12:21:18;;;;;;;;;57.00;46.60;;;;;;;;5017545;28;8759;-66
2022/04/28 12:23:47;;;;;;;;;62.60;48.40;;;;;;;;5037117;28;9434;-66
2022/04/28 12:26:13;;;;;;;;;58.00;46.75;;;;;;;;5036349;28;8777;-66
2022/04/28 12:28:41;;;;;;;;;58.60;45.60;;;;;;;;4999926;28;8818;-66
2022/04/28 12:31:09;;;;;;;;;57.20;45.40;;;;;;;;5017089;28;8791;-66
2022/04/28 12:33:37;;;;;;;;;58.75;46.75;;;;;;;;5016698;28;8762;-66
2022/04/28 12:36:04;;;;;;;;;52.80;44.00;;;;;;;;5016806;28;8775;-66
2022/04/28 12:38:33;;;;;;;;;56.50;44.75;;;;;;;;5016412;28;8759;-66
2022/04/28 12:41:01;;;;;;;;;56.00;45.50;;;;;;;;5014422;28;8833;-66
2022/04/28 12:43:42;;;;;;;;;55.25;44.00;;;;;;;;5014972;28;8747;-66
2022/04/28 12:46:09;;;;;;;;;50.25;42.00;;;;;;;;5017240;28;8771;-66
2022/04/28 12:48:37;;;;;;;;;53.50;43.25;;;;;;;;5016158;28;8763;-66
2022/04/28 12:51:15;;;;;;;;;51.50;42.25;;;;;;;;5016652;28;8771;-67
2022/04/28 12:53:44;;;;;;;;;57.50;44.50;;;;;;;;5001317;28;8785;-66
2022/04/28 12:56:13;;;;;;;;;57.25;45.25;;;;;;;;4996920;28;8775;-66
2022/04/28 12:58:40;;;;;;;;;56.50;43.75;;;;;;;;4989091;28;8831;-66
2022/04/28 13:01:20;;;;;;;;;54.25;43.75;;;;;;;;5010482;28;8750;-66
2022/04/28 13:04:03;;;;;;;;;57.75;44.50;;;;;;;;4995524;28;8769;-66
2022/04/28 13:06:30;;;;;;;;;57.40;46.40;;;;;;;;4998750;28;8809;-66
2022/04/28 13:08:57;;;;;;;;;58.00;46.80;;;;;;;;5033356;28;8796;-66
2022/04/28 13:11:31;;;;;;;;;47.80;38.00;;;;;;;;5018731;28;8773;-66
2022/04/28 13:13:58;;;;;;;;;57.75;47.00;;;;;;;;5025930;28;8787;-66
2022/04/28 13:16:25;;;;;;;;;58.25;46.00;;;;;;;;5018130;28;8753;-64
2022/04/28 13:18:52;;;;;;;;;47.60;40.00;;;;;;;;5018983;28;8745;-66
2022/04/28 13:21:19;;;;;;;;;51.75;42.50;;;;;;;;5017756;28;8871;-65
2022/04/28 13:23:46;;;;;;;;;53.00;41.25;;;;;;;;5000679;28;9036;-66
2022/04/28 13:26:14;;;;;;;;;57.75;45.25;;;;;;;;4996809;28;8930;-66
2022/04/28 13:28:40;;;;;;;;;54.33;45.67;;;;;;;;4996475;28;8764;-66
2022/04/28 13:31:07;;;;;;;;;56.00;45.50;;;;;;;;5000846;28;8769;-66
2022/04/28 13:33:34;;;;;;;;;56.40;46.60;;;;;;;;5014989;28;8752;-66
2022/04/28 13:36:04;;;;;;;;;60.80;47.00;;;;;;;;5000282;28;8804;-66
2022/04/28 13:38:31;;;;;;;;;52.60;43.40;;;;;;;;5013134;28;8789;-66
2022/04/28 13:40:58;;;;;;;;;54.75;45.50;;;;;;;;5035056;28;8755;-67
2022/04/28 13:43:25;;;;;;;;;58.50;46.75;;;;;;;;5018117;28;8740;-62
2022/04/28 13:45:51;;;;;;;;;51.75;43.50;;;;;;;;5020167;28;8755;-66
2022/04/28 13:48:19;;;;;;;;;54.20;43.60;;;;;;;;5019595;28;9416;-65
2022/04/28 13:50:50;;;;;;;;;50.75;41.50;;;;;;;;5019758;28;8794;-66
2022/04/28 13:53:17;;;;;;;;;57.00;45.00;;;;;;;;5007978;28;8761;-64
2022/04/28 13:55:46;;;;;;;;;54.80;44.40;;;;;;;;4999952;28;8757;-66
2022/04/28 13:58:14;;;;;;;;;54.50;45.50;;;;;;;;5000434;28;8868;-66
2022/04/28 14:00:41;;;;;;;;;54.80;45.20;;;;;;;;4998450;28;8766;-67
2022/04/28 14:03:08;;;;;;;;;58.20;48.40;;;;;;;;4999926;28;8761;-66
2022/04/28 14:05:34;;;;;;;;;56.40;44.60;;;;;;;;4999504;28;8765;-66
2022/04/28 14:08:01;;;;;;;;;57.50;44.50;;;;;;;;5024424;28;8751;-66
2022/04/28 14:10:28;;;;;;;;;48.50;39.25;;;;;;;;5018894;28;8775;-66
2022/04/28 14:12:54;;;;;;;;;57.25;44.00;;;;;;;;5019938;28;8757;-66
2022/04/28 14:15:21;;;;;;;;;58.00;46.40;;;;;;;;5018691;28;9376;-66
2022/04/28 14:17:48;;;;;;;;;54.00;43.50;;;;;;;;5018837;28;8739;-66
2022/04/28 14:20:15;;;;;;;;;55.75;43.50;;;;;;;;5019340;28;8767;-66
2022/04/28 14:22:42;;;;;;;;;54.25;43.25;;;;;;;;5011997;28;8820;-67
2022/04/28 14:25:09;;;;;;;;;49.80;41.40;;;;;;;;4999655;28;8823;-67
2022/04/28 14:27:37;;;;;;;;;56.00;45.00;;;;;;;;4999015;28;8750;-66
2022/04/28 14:30:06;;;;;;;;;57.20;46.20;;;;;;;;4999367;28;8803;-66
2022/04/28 14:32:33;;;;;;;;;54.25;44.75;;;;;;;;4998903;28;8737;-66
2022/04/28 14:34:59;;;;;;;;;58.50;46.00;;;;;;;;4999403;28;8757;-66
2022/04/28 14:37:26;;;;;;;;;58.60;45.00;;;;;;;;5003399;28;8755;-65
2022/04/28 14:39:53;;;;;;;;;50.00;43.00;;;;;;;;5034485;28;8727;-66
2022/04/28 14:42:22;;;;;;;;;56.00;44.25;;;;;;;;5018434;28;8730;-65
2022/04/28 14:44:49;;;;;;;;;58.20;43.00;;;;;;;;5018383;28;8750;-66
2022/04/28 14:47:16;;;;;;;;;55.80;45.40;;;;;;;;5033926;28;9356;-66
2022/04/28 14:52:29;;;;;;;;;52.00;43.00;;;;;;;;5012859;28;8770;-65
2022/04/28 14:54:59;;;;;;;;;52.25;42.00;;;;;;;;5014178;28;8738;-66
2022/04/28 14:57:27;;;;;;;;;53.75;43.25;;;;;;;;4998244;28;8828;-65
2022/04/28 14:59:54;;;;;;;;;45.50;38.00;;;;;;;;4998703;28;8796;-66
2022/04/28 15:02:20;;;;;;;;;49.75;41.00;;;;;;;;4997210;28;9875;-65
2022/04/28 15:04:47;;;;;;;;;45.00;39.75;;;;;;;;4998598;28;8876;-66
2022/04/28 15:07:14;;;;;;;;;46.25;38.00;;;;;;;;5002157;28;8838;-66
2022/04/28 15:09:41;;;;;;;;;49.75;39.75;;;;;;;;5017705;28;8774;-66
2022/04/28 15:12:09;;;;;;;;;45.25;37.00;;;;;;;;5018062;28;8747;-66
2022/04/28 15:14:36;;;;;;;;;43.50;36.75;;;;;;;;5017435;28;9529;-66